Time;durP1;ratioP1;P1;durP2;ratioP2;P2;SDS_P1;SDS_P2;PMS_P1;PMS_P2;Temp;Humidity;BMP_temperature;BMP_pressure;BME280_temperature;BME280_humidity;BME280_pressure;Samples;Min_cycle;Max_cycle;Signal;HPM_P1;HPM_P2
2023/06/17 00:01:09;;;;;;;11.15;8.85;;;15.50;99.90;;;;;;5094628;28;20169;-87
2023/06/17 00:03:35;;;;;;;10.63;9.45;;;15.60;99.90;;;;;;5094581;28;20203;-87
2023/06/17 00:06:01;;;;;;;10.85;9.75;;;15.50;99.90;;;;;;5093635;28;20165;-88
2023/06/17 00:08:26;;;;;;;14.63;9.88;;;15.50;99.90;;;;;;5077294;28;20181;-87
2023/06/17 00:10:52;;;;;;;13.65;9.57;;;15.40;99.90;;;;;;5073104;28;20670;-87
2023/06/17 00:13:19;;;;;;;12.25;9.57;;;15.40;99.90;;;;;;5073128;28;20181;-87
2023/06/17 00:15:47;;;;;;;10.75;9.27;;;15.30;99.90;;;;;;5073061;28;20690;-87
2023/06/17 00:18:14;;;;;;;10.82;9.45;;;15.30;99.90;;;;;;5073005;28;20636;-88
2023/06/17 00:20:40;;;;;;;11.07;9.98;;;15.20;99.90;;;;;;5072960;28;20272;-87
2023/06/17 00:23:08;;;;;;;10.10;9.10;;;15.20;99.90;;;;;;5074060;28;20229;-87
2023/06/17 00:25:36;;;;;;;11.02;9.05;;;15.20;99.90;;;;;;5073056;28;20184;-87
2023/06/17 00:28:01;;;;;;;10.63;9.60;;;15.20;99.90;;;;;;5073446;28;20256;-87
2023/06/17 00:30:27;;;;;;;11.13;10.00;;;15.30;99.90;;;;;;5076937;28;20197;-88
2023/06/17 00:32:53;;;;;;;9.90;8.95;;;15.20;99.90;;;;;;5076603;28;20268;-87
2023/06/17 00:35:20;;;;;;;10.30;9.30;;;15.20;99.90;;;;;;5076797;28;20622;-86
2023/06/17 00:37:46;;;;;;;11.98;10.02;;;15.30;99.90;;;;;;5076346;28;20225;-88
2023/06/17 00:42:47;;;;;;;11.18;9.88;;;15.30;99.90;;;;;;5090448;22;20232;-83
2023/06/17 00:45:13;;;;;;;13.18;10.23;;;15.40;99.90;;;;;;5077397;28;20170;-84
2023/06/17 00:47:39;;;;;;;14.32;9.65;;;15.40;99.90;;;;;;5077099;28;20192;-87
2023/06/17 00:50:09;;;;;;;12.73;10.32;;;15.40;99.90;;;;;;5075949;28;20181;-88
2023/06/17 00:52:37;;;;;;;11.80;10.60;;;15.40;99.90;;;;;;5075967;28;20277;-83
2023/06/17 00:55:03;;;;;;;12.73;10.90;;;15.40;99.90;;;;;;5077503;28;20587;-88
2023/06/17 00:57:29;;;;;;;12.15;10.75;;;15.30;99.90;;;;;;5076856;28;21003;-86
2023/06/17 00:59:55;;;;;;;15.25;10.85;;;15.30;99.90;;;;;;5077147;28;20252;-87
2023/06/17 01:02:25;;;;;;;10.93;9.90;;;15.30;99.90;;;;;;5077018;28;20595;-81
2023/06/17 01:04:53;;;;;;;11.00;9.80;;;15.40;99.90;;;;;;5075826;28;20603;-82
2023/06/17 01:08:12;;;;;;;13.40;9.55;;;15.40;99.90;;;;;;5076846;28;20592;-82
2023/06/17 01:10:46;;;;;;;12.35;9.82;;;15.40;99.90;;;;;;5061867;28;20185;-85
2023/06/17 01:13:15;;;;;;;12.70;10.52;;;15.40;99.90;;;;;;5076402;28;20161;-88
2023/06/17 01:15:42;;;;;;;10.98;9.93;;;15.40;99.90;;;;;;5076623;28;20200;-86
2023/06/17 01:18:08;;;;;;;13.23;11.02;;;15.40;99.90;;;;;;5075646;28;20560;-82
2023/06/17 01:20:35;;;;;;;11.20;10.10;;;15.40;99.90;;;;;;5075931;28;20518;-82
2023/06/17 01:23:03;;;;;;;10.70;9.65;;;15.40;99.90;;;;;;5074676;28;20173;-84
2023/06/17 01:25:30;;;;;;;12.25;10.55;;;15.40;99.90;;;;;;5076560;28;20161;-87
2023/06/17 01:28:00;;;;;;;11.88;10.43;;;15.30;99.90;;;;;;5076277;28;20171;-82
2023/06/17 01:30:30;;;;;;;15.35;9.85;;;15.30;99.90;;;;;;5075951;28;20157;-81
2023/06/17 01:33:00;;;;;;;16.20;10.98;;;15.20;99.90;;;;;;5075690;28;20173;-82
2023/06/17 01:35:32;;;;;;;12.13;10.93;;;15.20;99.90;;;;;;5075550;28;20192;-83
2023/06/17 01:39:05;;;;;;;14.57;11.23;;;15.00;99.90;;;;;;5074699;28;20188;-82
2023/06/17 01:41:38;;;;;;;11.73;10.45;;;15.00;99.90;;;;;;5010452;28;20223;-82
2023/06/17 01:44:06;;;;;;;10.90;9.63;;;14.90;99.90;;;;;;5012916;28;20179;-81
2023/06/17 01:46:32;;;;;;;12.10;10.50;;;14.90;99.90;;;;;;5047642;28;20197;-82
2023/06/17 01:48:58;;;;;;;11.70;10.60;;;14.90;99.90;;;;;;5074082;28;20250;-82
2023/06/17 01:51:24;;;;;;;11.60;10.40;;;14.90;99.90;;;;;;5075410;28;20184;-81
2023/06/17 01:53:50;;;;;;;13.48;11.20;;;14.80;99.90;;;;;;5075472;28;20173;-82
2023/06/17 01:56:16;;;;;;;15.85;11.20;;;14.80;99.90;;;;;;5073533;28;20247;-81
2023/06/17 01:58:42;;;;;;;13.82;12.07;;;14.90;99.90;;;;;;5075184;28;20177;-82
2023/06/17 02:01:08;;;;;;;14.15;12.23;;;14.80;99.90;;;;;;5075269;28;20169;-84
2023/06/17 02:03:34;;;;;;;13.88;12.48;;;14.80;99.90;;;;;;5075019;28;20181;-81
2023/06/17 02:06:00;;;;;;;15.90;12.32;;;14.80;99.90;;;;;;5075254;28;20219;-83
2023/06/17 02:08:26;;;;;;;15.35;12.13;;;14.80;99.90;;;;;;5075132;28;20177;-82
2023/06/17 02:10:52;;;;;;;13.43;12.02;;;14.80;99.90;;;;;;5073115;28;20285;-81
2023/06/17 02:13:18;;;;;;;14.20;12.32;;;14.80;99.90;;;;;;5073475;28;20173;-80
2023/06/17 02:15:44;;;;;;;13.90;12.50;;;14.80;99.90;;;;;;5073605;28;20217;-81
2023/06/17 02:18:12;;;;;;;14.35;12.20;;;14.80;99.90;;;;;;5074978;28;20175;-81
2023/06/17 02:20:38;;;;;;;15.82;13.40;;;14.80;99.90;;;;;;5073600;28;20173;-82
2023/06/17 02:23:05;;;;;;;13.98;12.55;;;14.70;99.90;;;;;;5073252;28;20219;-82
2023/06/17 02:25:31;;;;;;;17.50;13.68;;;14.70;99.90;;;;;;5074660;28;20608;-81
2023/06/17 02:27:56;;;;;;;15.00;13.50;;;14.60;99.90;;;;;;5074479;28;20187;-81
2023/06/17 02:30:22;;;;;;;15.00;13.45;;;14.60;99.90;;;;;;5073363;28;20580;-81
2023/06/17 02:32:48;;;;;;;14.68;13.18;;;14.60;99.90;;;;;;5074526;28;20629;-81
2023/06/17 02:35:14;;;;;;;15.45;13.75;;;14.50;99.90;;;;;;5074760;28;20592;-82
2023/06/17 02:37:40;;;;;;;17.33;14.10;;;14.40;99.90;;;;;;5073134;28;20223;-81
2023/06/17 02:40:08;;;;;;;15.27;13.57;;;14.40;99.90;;;;;;5074404;28;20172;-81
2023/06/17 02:42:35;;;;;;;16.85;13.80;;;14.40;99.90;;;;;;5072558;28;20228;-82
2023/06/17 02:45:01;;;;;;;15.73;13.88;;;14.40;99.90;;;;;;5073129;28;20205;-82
2023/06/17 02:47:27;;;;;;;18.27;14.18;;;14.30;99.90;;;;;;5074437;28;20180;-82
2023/06/17 02:49:53;;;;;;;18.13;14.43;;;14.30;99.90;;;;;;5074203;28;20170;-81
2023/06/17 02:52:18;;;;;;;15.95;14.32;;;14.30;99.90;;;;;;5073336;28;20214;-81
2023/06/17 02:54:44;;;;;;;14.40;12.68;;;14.30;99.90;;;;;;5074005;28;20173;-81
2023/06/17 02:57:10;;;;;;;14.85;13.25;;;14.30;99.90;;;;;;5073902;28;20212;-81
2023/06/17 02:59:37;;;;;;;16.27;14.68;;;14.40;99.90;;;;;;5074171;28;20193;-81
2023/06/17 03:02:03;;;;;;;14.82;13.32;;;14.30;99.90;;;;;;5072674;28;20272;-82
2023/06/17 03:04:34;;;;;;;17.13;13.68;;;14.40;99.90;;;;;;5073981;28;20166;-82
2023/06/17 03:07:02;;;;;;;16.58;14.77;;;14.40;99.90;;;;;;5073992;28;20154;-81
2023/06/17 03:09:28;;;;;;;15.93;14.25;;;14.50;99.90;;;;;;5073775;28;20165;-82
2023/06/17 03:11:54;;;;;;;20.58;15.20;;;14.50;99.90;;;;;;5073703;28;20173;-81
2023/06/17 03:14:20;;;;;;;18.00;15.27;;;14.50;99.90;;;;;;5073895;28;20270;-82
2023/06/17 03:16:46;;;;;;;18.88;16.88;;;14.60;99.90;;;;;;5073898;28;20201;-82
2023/06/17 03:19:14;;;;;;;21.23;17.35;;;14.60;99.90;;;;;;5072574;28;20181;-82
2023/06/17 03:21:42;;;;;;;25.98;19.83;;;14.60;99.90;;;;;;5072219;28;20184;-82
2023/06/17 03:24:08;;;;;;;26.10;19.73;;;14.60;99.90;;;;;;5072339;28;20177;-81
2023/06/17 03:26:34;;;;;;;19.88;17.45;;;14.60;99.90;;;;;;5073614;28;20166;-83
2023/06/17 03:29:01;;;;;;;22.55;18.35;;;14.70;99.90;;;;;;5072316;28;20179;-81
2023/06/17 03:31:28;;;;;;;23.55;17.67;;;14.60;99.90;;;;;;5073814;28;20177;-82
2023/06/17 03:33:54;;;;;;;25.10;19.10;;;14.70;99.90;;;;;;5073678;28;20603;-82
2023/06/17 03:36:29;;;;;;;20.20;17.85;;;14.70;99.90;;;;;;5072308;28;20254;-81
2023/06/17 03:38:56;;;;;;;25.77;19.88;;;14.70;99.90;;;;;;5053655;28;20166;-84
2023/06/17 03:41:26;;;;;;;24.35;19.25;;;14.70;99.90;;;;;;5051981;28;20325;-82
2023/06/17 03:43:52;;;;;;;24.15;19.33;;;14.70;99.90;;;;;;5053690;28;20188;-82
2023/06/17 03:46:19;;;;;;;27.35;19.73;;;14.80;99.90;;;;;;5052375;28;20312;-82
2023/06/17 03:48:44;;;;;;;23.73;19.75;;;14.80;99.90;;;;;;5053438;28;20178;-81
2023/06/17 03:51:11;;;;;;;22.10;19.80;;;14.80;99.90;;;;;;5053492;28;20174;-83
2023/06/17 03:53:36;;;;;;;21.15;18.92;;;14.70;99.90;;;;;;5053437;28;20232;-82
2023/06/17 03:56:03;;;;;;;23.65;19.52;;;14.80;99.90;;;;;;5053621;28;20205;-81
2023/06/17 03:58:28;;;;;;;24.63;20.25;;;14.80;99.90;;;;;;5052084;28;20511;-81
2023/06/17 04:00:54;;;;;;;27.98;20.08;;;14.80;99.90;;;;;;5052016;28;20185;-81
2023/06/17 04:03:24;;;;;;;27.70;20.35;;;14.80;99.90;;;;;;5072417;28;20169;-82
2023/06/17 04:05:51;;;;;;;22.77;20.23;;;14.80;99.90;;;;;;5077466;28;20169;-81
2023/06/17 04:08:18;;;;;;;24.98;20.95;;;14.80;99.90;;;;;;5077526;28;20219;-82
2023/06/17 04:10:47;;;;;;;27.83;20.85;;;14.80;99.90;;;;;;5076181;28;20268;-82
2023/06/17 04:13:12;;;;;;;24.02;21.27;;;14.70;99.90;;;;;;5077063;28;20180;-82
2023/06/17 04:15:38;;;;;;;25.98;20.45;;;14.70;99.90;;;;;;5077319;28;20173;-82
2023/06/17 04:18:04;;;;;;;25.63;21.40;;;14.70;99.90;;;;;;5075845;28;20230;-82
2023/06/17 04:20:32;;;;;;;26.70;22.25;;;14.70;99.90;;;;;;5075921;28;20342;-82
2023/06/17 04:22:58;;;;;;;26.77;20.80;;;14.60;99.90;;;;;;5077162;28;20645;-82
2023/06/17 04:25:24;;;;;;;25.17;19.77;;;14.60;99.90;;;;;;5077295;28;20202;-84
2023/06/17 04:27:53;;;;;;;23.50;21.00;;;14.60;99.90;;;;;;5076923;28;20487;-84
2023/06/17 04:30:19;;;;;;;22.17;19.15;;;14.60;99.90;;;;;;5075746;28;20200;-82
2023/06/17 04:32:45;;;;;;;30.75;22.55;;;14.60;99.90;;;;;;5075358;28;20185;-81
2023/06/17 04:35:10;;;;;;;25.67;20.70;;;14.60;99.90;;;;;;5077568;28;20173;-82
2023/06/17 04:37:37;;;;;;;30.08;22.92;;;14.50;99.90;;;;;;5077434;28;20205;-81
2023/06/17 04:40:06;;;;;;;26.83;22.23;;;14.50;99.90;;;;;;5076418;28;20176;-81
2023/06/17 04:42:34;;;;;;;30.67;22.95;;;14.50;99.90;;;;;;5075791;28;20312;-83
2023/06/17 04:45:01;;;;;;;28.90;22.20;;;14.50;99.90;;;;;;5077308;28;20733;-88
2023/06/17 04:47:28;;;;;;;28.42;22.77;;;14.50;99.90;;;;;;5077397;28;20505;-91
2023/06/17 04:49:55;;;;;;;25.77;21.58;;;14.50;99.90;;;;;;5076110;28;20181;-88
2023/06/17 04:52:24;;;;;;;27.25;20.35;;;14.50;99.90;;;;;;5077189;28;20599;-90
2023/06/17 04:55:01;;;;;;;27.80;21.52;;;14.60;99.90;;;;;;5075594;28;20584;-88
2023/06/17 04:57:26;;;;;;;26.85;21.33;;;14.60;99.90;;;;;;5075676;28;20208;-90
2023/06/17 04:59:52;;;;;;;29.50;22.55;;;14.60;99.90;;;;;;5077004;28;20180;-86
2023/06/17 05:02:18;;;;;;;29.42;21.75;;;14.60;99.90;;;;;;5075551;28;20543;-83
2023/06/17 05:04:44;;;;;;;24.85;21.15;;;14.60;99.90;;;;;;5076812;28;20192;-87
2023/06/17 05:07:10;;;;;;;29.65;22.80;;;14.70;99.90;;;;;;5077004;28;20615;-85
2023/06/17 05:09:36;;;;;;;27.40;21.10;;;14.60;99.90;;;;;;5075689;28;20173;-89
2023/06/17 05:12:01;;;;;;;33.17;22.73;;;14.70;99.90;;;;;;5076761;28;20672;-84
2023/06/17 05:14:27;;;;;;;29.15;22.15;;;14.70;99.90;;;;;;5075297;28;20173;-82
2023/06/17 05:16:53;;;;;;;29.42;22.00;;;14.60;99.90;;;;;;5076349;28;20541;-84
2023/06/17 05:19:19;;;;;;;31.90;21.73;;;14.70;99.90;;;;;;5074976;28;20169;-84
2023/06/17 05:21:44;;;;;;;26.33;21.88;;;14.70;99.90;;;;;;5077011;28;20881;-91
2023/06/17 05:24:10;;;;;;;28.48;22.38;;;14.80;99.90;;;;;;5075550;28;20208;-89
2023/06/17 05:26:37;;;;;;;28.92;21.92;;;14.80;99.90;;;;;;5075086;28;20184;-90
2023/06/17 05:29:03;;;;;;;29.05;21.50;;;14.90;99.90;;;;;;5076554;28;20240;-83
2023/06/17 05:31:28;;;;;;;26.02;21.50;;;14.90;99.90;;;;;;5076602;28;20265;-86
2023/06/17 05:33:54;;;;;;;29.17;21.85;;;15.00;99.90;;;;;;5076246;28;20184;-85
2023/06/17 05:36:20;;;;;;;28.85;21.05;;;15.10;99.90;;;;;;5075375;28;20295;-91
2023/06/17 05:38:45;;;;;;;24.17;20.10;;;15.10;99.90;;;;;;5075545;28;20200;-88
2023/06/17 05:41:11;;;;;;;29.40;20.13;;;15.20;99.90;;;;;;5076356;28;20300;-89
2023/06/17 05:43:37;;;;;;;30.48;22.15;;;15.20;99.90;;;;;;5074763;28;20608;-87
2023/06/17 05:46:03;;;;;;;24.85;20.45;;;15.30;99.90;;;;;;5075183;28;20185;-86
2023/06/17 05:48:28;;;;;;;27.27;19.85;;;15.30;99.90;;;;;;5075195;28;20271;-91
2023/06/17 05:50:54;;;;;;;28.00;20.90;;;15.30;99.90;;;;;;5076777;28;20302;-89
2023/06/17 05:53:20;;;;;;;25.00;20.23;;;15.30;99.90;;;;;;5076497;28;20222;-91
2023/06/17 05:55:48;;;;;;;32.88;21.42;;;15.30;99.90;;;;;;5075173;28;20204;-91
2023/06/17 05:58:13;;;;;;;21.90;19.13;;;15.30;99.90;;;;;;5076001;28;20184;-86
2023/06/17 06:00:39;;;;;;;27.48;20.52;;;15.40;99.90;;;;;;5075949;28;20169;-85
2023/06/17 06:03:04;;;;;;;29.38;20.02;;;15.40;99.90;;;;;;5075987;28;20518;-90
2023/06/17 06:05:31;;;;;;;24.42;19.20;;;15.40;99.90;;;;;;5076289;28;20169;-88
2023/06/17 06:07:57;;;;;;;27.10;19.60;;;15.50;99.90;;;;;;5074106;28;20612;-83
2023/06/17 06:10:25;;;;;;;21.55;18.60;;;15.60;99.90;;;;;;5074920;28;20231;-84
2023/06/17 06:12:51;;;;;;;26.05;19.15;;;15.70;99.90;;;;;;5074518;28;20173;-87
2023/06/17 06:15:17;;;;;;;22.27;17.13;;;15.80;99.90;;;;;;5073786;28;20179;-82
2023/06/17 06:17:42;;;;;;;22.88;18.13;;;15.90;99.90;;;;;;5073847;28;20205;-83
2023/06/17 06:20:08;;;;;;;21.27;15.88;;;16.00;99.90;;;;;;5073132;28;20177;-83
2023/06/17 06:22:34;;;;;;;19.33;17.23;;;16.10;99.90;;;;;;5074860;28;20177;-82
2023/06/17 06:25:00;;;;;;;19.55;16.10;;;16.20;99.90;;;;;;5073554;28;20173;-83
2023/06/17 06:27:26;;;;;;;17.52;15.63;;;16.20;99.90;;;;;;5074449;28;20478;-83
2023/06/17 06:29:51;;;;;;;19.75;16.23;;;16.30;99.90;;;;;;5074971;28;20177;-85
2023/06/17 06:32:17;;;;;;;19.40;15.90;;;16.30;99.90;;;;;;5073474;28;20620;-83
2023/06/17 06:34:45;;;;;;;19.20;16.08;;;16.40;99.90;;;;;;5073547;28;20173;-84
2023/06/17 06:37:11;;;;;;;19.50;15.98;;;16.50;99.90;;;;;;5074031;28;20204;-82
2023/06/17 06:39:37;;;;;;;20.77;16.50;;;16.60;99.90;;;;;;5073100;28;20165;-84
2023/06/17 06:42:03;;;;;;;21.38;17.63;;;16.70;99.90;;;;;;5072812;28;20315;-83
2023/06/17 06:44:29;;;;;;;22.90;17.15;;;16.80;99.90;;;;;;5073245;28;20496;-82
2023/06/17 06:46:55;;;;;;;25.75;17.08;;;16.90;99.90;;;;;;5074437;28;20173;-83
2023/06/17 06:49:22;;;;;;;23.85;17.88;;;17.00;99.90;;;;;;5073160;28;20204;-82
2023/06/17 06:51:48;;;;;;;18.42;16.00;;;17.10;99.90;;;;;;5073041;28;20254;-81
2023/06/17 06:54:14;;;;;;;20.08;16.23;;;17.20;99.90;;;;;;5073735;28;20623;-83
2023/06/17 06:56:39;;;;;;;20.40;16.65;;;17.20;99.90;;;;;;5074274;28;20275;-82
2023/06/17 06:59:05;;;;;;;20.15;17.20;;;17.30;99.90;;;;;;5074222;28;20248;-83
2023/06/17 07:01:31;;;;;;;19.98;15.82;;;17.40;99.90;;;;;;5074156;28;20608;-82
2023/06/17 07:03:57;;;;;;;19.95;16.35;;;17.60;99.90;;;;;;5073165;28;20512;-85
2023/06/17 07:06:23;;;;;;;17.27;14.85;;;17.50;99.90;;;;;;5074293;28;20161;-83
2023/06/17 07:08:48;;;;;;;18.00;15.25;;;17.50;99.90;;;;;;5072617;28;20636;-82
2023/06/17 07:11:14;;;;;;;19.48;14.65;;;17.60;99.90;;;;;;5073823;28;20170;-83
2023/06/17 07:13:41;;;;;;;18.52;14.60;;;17.70;99.90;;;;;;5073676;28;20227;-83
2023/06/17 07:16:07;;;;;;;20.83;15.23;;;18.10;99.90;;;;;;5072743;28;20659;-82
2023/06/17 07:18:33;;;;;;;21.77;15.60;;;18.20;99.90;;;;;;5072787;28;20223;-82
2023/06/17 07:20:58;;;;;;;16.48;14.02;;;18.20;99.90;;;;;;5072157;28;20230;-83
2023/06/17 07:23:24;;;;;;;17.83;13.88;;;18.00;99.90;;;;;;5072252;28;20616;-84
2023/06/17 07:25:50;;;;;;;19.05;14.07;;;18.10;99.90;;;;;;5073866;28;20169;-84
2023/06/17 07:28:16;;;;;;;17.40;12.38;;;18.10;99.90;;;;;;5072319;28;20189;-82
2023/06/17 07:30:42;;;;;;;15.73;12.90;;;18.10;99.90;;;;;;5072613;28;20176;-85
2023/06/17 07:33:07;;;;;;;18.50;13.32;;;18.00;99.90;;;;;;5072442;28;20188;-84
2023/06/17 07:35:33;;;;;;;15.50;13.13;;;18.20;99.90;;;;;;5073750;28;20567;-83
2023/06/17 07:37:59;;;;;;;15.65;13.27;;;18.40;99.90;;;;;;5071923;28;20794;-84
2023/06/17 07:40:25;;;;;;;15.98;12.48;;;18.40;99.90;;;;;;5073694;28;20196;-84
2023/06/17 07:42:51;;;;;;;18.08;12.45;;;18.30;99.90;;;;;;5071896;28;20246;-82
2023/06/17 07:45:16;;;;;;;15.65;12.70;;;18.30;99.90;;;;;;5073774;28;20227;-83
2023/06/17 07:47:42;;;;;;;16.30;12.15;;;18.50;99.90;;;;;;5072399;28;20705;-86
2023/06/17 07:50:09;;;;;;;14.32;11.50;;;18.50;99.90;;;;;;5072446;28;20242;-84
2023/06/17 07:52:35;;;;;;;13.40;11.95;;;18.50;99.90;;;;;;5072036;28;20258;-84
2023/06/17 07:55:05;;;;;;;15.43;12.30;;;18.50;99.90;;;;;;5073420;28;20169;-83
2023/06/17 07:57:30;;;;;;;17.77;12.70;;;18.50;99.90;;;;;;5073240;28;20662;-83
2023/06/17 07:59:57;;;;;;;15.65;13.00;;;18.50;99.90;;;;;;5073399;28;20260;-82
2023/06/17 08:02:23;;;;;;;17.08;14.10;;;18.50;99.90;;;;;;5073457;28;20248;-83
2023/06/17 08:04:49;;;;;;;17.63;13.77;;;18.60;99.90;;;;;;5073268;28;20169;-83
2023/06/17 08:07:15;;;;;;;15.68;12.45;;;18.70;99.90;;;;;;5071882;28;20173;-82
2023/06/17 08:09:41;;;;;;;14.15;12.45;;;18.80;99.90;;;;;;5072170;28;20177;-82
2023/06/17 08:12:07;;;;;;;16.00;12.45;;;18.80;99.90;;;;;;5071804;28;20188;-82
2023/06/17 08:14:33;;;;;;;13.27;11.90;;;18.70;99.90;;;;;;5073360;28;20170;-84
2023/06/17 08:16:58;;;;;;;15.48;11.98;;;18.70;99.90;;;;;;5072052;28;20209;-85
2023/06/17 08:19:24;;;;;;;16.70;12.45;;;18.70;99.90;;;;;;5071588;28;20208;-83
2023/06/17 08:21:50;;;;;;;18.65;13.13;;;18.80;99.90;;;;;;5073023;28;20165;-83
2023/06/17 08:24:26;;;;;;;14.70;11.98;;;19.10;99.90;;;;;;5071824;28;20625;-82
2023/06/17 08:26:53;;;;;;;17.48;10.98;;;19.30;99.90;;;;;;5073290;28;20215;-83
2023/06/17 08:29:19;;;;;;;17.13;12.30;;;19.40;99.90;;;;;;5072973;28;20154;-84
2023/06/17 08:31:48;;;;;;;13.75;10.48;;;19.50;99.90;;;;;;5073175;28;20188;-83
2023/06/17 08:34:14;;;;;;;14.70;11.80;;;19.70;99.90;;;;;;5071622;28;20173;-84
2023/06/17 08:36:49;;;;;;;13.35;11.32;;;19.90;99.90;;;;;;5071724;28;20224;-83
2023/06/17 08:39:15;;;;;;;20.45;11.70;;;20.10;99.90;;;;;;5073166;28;20203;-84
2023/06/17 08:41:42;;;;;;;15.93;12.38;;;20.30;99.90;;;;;;5072895;28;20252;-85
2023/06/17 08:44:13;;;;;;;16.05;12.35;;;20.40;99.90;;;;;;5072857;28;20620;-84
2023/06/17 08:46:40;;;;;;;18.75;11.95;;;20.60;99.90;;;;;;5071678;28;20209;-85
2023/06/17 08:49:10;;;;;;;14.57;10.80;;;20.80;99.90;;;;;;5071490;28;20181;-85
2023/06/17 08:51:36;;;;;;;15.73;11.48;;;21.10;99.90;;;;;;5074531;28;20169;-83
2023/06/17 08:54:02;;;;;;;12.85;10.93;;;21.10;99.90;;;;;;5076628;28;20177;-84
2023/06/17 08:56:28;;;;;;;13.02;10.80;;;21.00;99.90;;;;;;5075231;28;20565;-83
2023/06/17 08:58:55;;;;;;;14.15;11.35;;;21.00;99.90;;;;;;5076348;28;20176;-84
2023/06/17 09:01:22;;;;;;;13.30;11.38;;;20.90;99.90;;;;;;5076259;28;20173;-84
2023/06/17 09:03:51;;;;;;;13.07;11.13;;;20.70;99.90;;;;;;5076318;28;20315;-84
2023/06/17 09:06:18;;;;;;;15.23;12.80;;;20.40;99.90;;;;;;5076442;28;20282;-85
2023/06/17 09:08:44;;;;;;;16.02;11.93;;;20.10;99.90;;;;;;5075066;28;20585;-86
2023/06/17 09:11:10;;;;;;;19.52;10.77;;;20.30;99.90;;;;;;5075069;28;20181;-86
2023/06/17 09:13:36;;;;;;;14.48;12.05;;;20.60;99.90;;;;;;5074378;28;20178;-83
2023/06/17 09:16:02;;;;;;;13.82;12.05;;;20.90;99.90;;;;;;5075952;28;20211;-85
2023/06/17 09:18:32;;;;;;;14.23;11.70;;;21.20;99.90;;;;;;5076228;28;20185;-85
2023/06/17 09:20:58;;;;;;;13.10;10.60;;;21.50;99.90;;;;;;5074921;28;20176;-85
2023/06/17 09:23:24;;;;;;;14.18;12.15;;;21.70;99.90;;;;;;5075211;28;20177;-85
2023/06/17 09:26:03;;;;;;;13.25;10.88;;;21.70;99.90;;;;;;5075088;28;20260;-85
2023/06/17 09:28:29;;;;;;;13.52;10.98;;;21.80;99.90;;;;;;5074502;28;20264;-87
2023/06/17 09:30:57;;;;;;;16.42;12.13;;;21.60;99.90;;;;;;5075110;28;20184;-86
2023/06/17 09:33:25;;;;;;;13.65;10.52;;;21.40;99.90;;;;;;5074843;28;20173;-86
2023/06/17 09:36:04;;;;;;;14.48;10.50;;;21.40;99.90;;;;;;5074866;28;20590;-87
2023/06/17 09:38:31;;;;;;;12.60;11.30;;;21.50;99.90;;;;;;5075058;28;20189;-87
2023/06/17 09:41:00;;;;;;;13.98;11.23;;;21.70;99.90;;;;;;5075631;28;20225;-87
2023/06/17 09:43:27;;;;;;;16.00;10.65;;;21.80;99.90;;;;;;5075867;28;20565;-86
2023/06/17 09:45:59;;;;;;;13.93;11.32;;;22.00;99.90;;;;;;5074883;28;20204;-86
2023/06/17 09:48:30;;;;;;;11.50;9.95;;;22.10;99.90;;;;;;5074883;28;20389;-86
2023/06/17 09:50:57;;;;;;;13.63;10.23;;;22.20;99.90;;;;;;5075752;28;20224;-86
2023/06/17 09:53:29;;;;;;;17.63;10.82;;;22.20;99.90;;;;;;5074372;28;20204;-86
2023/06/17 09:55:57;;;;;;;14.20;10.13;;;22.50;99.90;;;;;;5074676;28;20642;-86
2023/06/17 09:58:26;;;;;;;11.18;9.43;;;22.50;99.90;;;;;;5074747;28;20570;-90
2023/06/17 10:00:52;;;;;;;14.02;10.35;;;22.40;99.90;;;;;;5075194;28;20158;-88
2023/06/17 10:03:19;;;;;;;15.48;10.63;;;22.30;99.90;;;;;;5075751;28;20252;-86
2023/06/17 10:05:59;;;;;;;13.30;10.85;;;22.00;99.90;;;;;;5074323;28;20177;-87
2023/06/17 10:08:29;;;;;;;11.50;8.95;;;21.80;99.90;;;;;;5075420;28;20251;-87
2023/06/17 10:10:59;;;;;;;12.30;9.60;;;21.80;99.90;;;;;;5075850;28;20187;-86
2023/06/17 10:13:26;;;;;;;11.52;10.32;;;22.00;99.90;;;;;;5075357;28;20513;-85
2023/06/17 10:15:53;;;;;;;13.45;10.73;;;22.30;99.90;;;;;;5073790;28;20264;-86
2023/06/17 10:18:22;;;;;;;15.18;9.75;;;22.40;99.90;;;;;;5075041;28;20628;-86
2023/06/17 10:20:50;;;;;;;12.30;9.32;;;22.50;99.90;;;;;;5073401;28;20249;-87
2023/06/17 10:23:19;;;;;;;15.00;10.57;;;22.70;99.90;;;;;;5073874;28;20177;-86
2023/06/17 10:25:45;;;;;;;11.20;9.95;;;22.80;99.90;;;;;;5075366;28;20608;-88
2023/06/17 10:28:14;;;;;;;13.48;10.90;;;22.90;99.90;;;;;;5073869;28;20174;-86
2023/06/17 10:30:44;;;;;;;16.85;11.07;;;23.10;99.90;;;;;;5073709;28;20749;-87
2023/06/17 10:33:10;;;;;;;15.82;13.20;;;23.20;99.90;;;;;;5072714;28;20189;-87
2023/06/17 10:35:39;;;;;;;11.48;10.27;;;23.20;99.90;;;;;;5073664;28;20180;-87
2023/06/17 10:38:08;;;;;;;12.02;10.70;;;23.40;99.90;;;;;;5073558;28;20237;-86
2023/06/17 10:40:50;;;;;;;13.77;11.07;;;23.60;99.90;;;;;;5073402;28;20173;-87
2023/06/17 10:43:18;;;;;;;13.32;9.88;;;23.60;99.90;;;;;;5072976;28;20188;-86
2023/06/17 10:45:54;;;;;;;11.73;9.95;;;23.70;99.90;;;;;;5073265;28;20192;-87
2023/06/17 10:48:29;;;;;;;10.40;9.07;;;23.80;99.90;;;;;;5074778;28;20511;-89
2023/06/17 10:50:58;;;;;;;10.13;9.13;;;23.50;99.90;;;;;;5073366;28;20180;-86
2023/06/17 10:53:29;;;;;;;13.18;9.50;;;23.40;99.90;;;;;;5073114;28;20523;-87
2023/06/17 10:55:56;;;;;;;10.43;9.35;;;23.70;99.90;;;;;;5073117;28;20185;-86
2023/06/17 10:58:28;;;;;;;12.35;9.85;;;23.60;99.90;;;;;;5074194;28;20196;-88
2023/06/17 11:01:09;;;;;;;12.05;9.07;;;23.40;99.90;;;;;;5074595;28;20669;-88
2023/06/17 11:03:35;;;;;;;11.23;10.13;;;23.20;99.90;;;;;;5073344;28;20177;-87
2023/06/17 11:06:02;;;;;;;10.82;9.38;;;23.20;99.90;;;;;;5074395;28;20169;-88
2023/06/17 11:08:33;;;;;;;12.38;9.27;;;23.20;99.90;;;;;;5073231;28;20200;-88
2023/06/17 11:11:13;;;;;;;10.85;9.65;;;23.30;99.90;;;;;;5073045;28;20184;-89
2023/06/17 11:13:41;;;;;;;12.50;9.43;;;23.60;99.90;;;;;;5072015;28;20500;-88
2023/06/17 11:16:08;;;;;;;12.77;9.82;;;23.70;99.90;;;;;;5073343;28;20212;-89
2023/06/17 11:18:38;;;;;;;8.90;8.00;;;23.80;98.80;;;;;;5073520;28;20192;-89
2023/06/17 11:21:05;;;;;;;10.07;8.50;;;23.80;98.60;;;;;;5072570;28;20177;-88
2023/06/17 11:23:32;;;;;;;10.93;8.95;;;23.90;98.70;;;;;;5072909;28;20177;-86
2023/06/17 11:25:58;;;;;;;10.13;8.20;;;23.90;96.90;;;;;;5074464;28;20165;-90
2023/06/17 11:28:24;;;;;;;9.50;7.15;;;23.90;97.40;;;;;;5073645;28;20223;-87
2023/06/17 11:30:50;;;;;;;8.25;7.35;;;24.10;98.20;;;;;;5072850;28;20169;-87
2023/06/17 11:33:20;;;;;;;9.48;7.20;;;24.00;97.40;;;;;;5073288;28;20181;-88
2023/06/17 11:35:48;;;;;;;9.93;7.97;;;24.10;97.70;;;;;;5072704;28;20621;-91
2023/06/17 11:38:16;;;;;;;11.13;7.93;;;24.20;97.10;;;;;;5073122;28;20185;-86
2023/06/17 11:40:42;;;;;;;9.27;8.13;;;24.10;98.60;;;;;;5073973;28;20616;-87
2023/06/17 11:43:09;;;;;;;8.23;7.43;;;24.30;98.30;;;;;;5072506;28;20177;-86
2023/06/17 11:45:35;;;;;;;9.60;7.68;;;24.50;98.70;;;;;;5072428;28;20174;-88
2023/06/17 11:48:11;;;;;;;8.65;7.78;;;24.70;96.10;;;;;;5072555;28;20181;-87
2023/06/17 11:50:37;;;;;;;13.00;8.52;;;24.50;96.20;;;;;;5074134;28;20208;-88
2023/06/17 11:53:03;;;;;;;10.63;8.35;;;24.60;98.20;;;;;;5073039;28;20204;-87
2023/06/17 11:55:36;;;;;;;10.95;8.35;;;24.60;98.30;;;;;;5074092;28;20638;-88
2023/06/17 11:58:04;;;;;;;8.35;7.18;;;24.90;98.90;;;;;;5073804;28;20208;-88
2023/06/17 12:00:35;;;;;;;9.15;7.40;;;25.00;97.30;;;;;;5073965;28;20162;-90
2023/06/17 12:03:03;;;;;;;8.43;7.53;;;25.20;97.80;;;;;;5074135;28;20252;-91
2023/06/17 12:05:29;;;;;;;10.52;7.28;;;25.30;95.30;;;;;;5073112;28;20184;-91
2023/06/17 12:08:02;;;;;;;9.15;7.50;;;25.30;95.70;;;;;;5074503;28;20264;-89
2023/06/17 12:10:27;;;;;;;9.57;7.13;;;25.30;95.20;;;;;;5072777;28;20197;-90
2023/06/17 12:12:57;;;;;;;7.38;6.65;;;25.30;94.80;;;;;;5071999;28;20212;-90
2023/06/17 12:15:29;;;;;;;6.78;6.03;;;25.30;95.10;;;;;;5073821;28;20174;-89
2023/06/17 12:17:57;;;;;;;7.68;6.82;;;25.40;94.80;;;;;;5072533;28;20213;-91
2023/06/17 12:20:23;;;;;;;6.95;6.25;;;25.50;94.90;;;;;;5072138;28;20179;-87
2023/06/17 12:22:51;;;;;;;9.27;6.40;;;25.60;94.30;;;;;;5072613;28;20209;-88
2023/06/17 12:25:17;;;;;;;7.63;5.80;;;25.60;95.00;;;;;;5074903;28;20508;-87
2023/06/17 12:27:43;;;;;;;10.00;6.68;;;25.60;93.90;;;;;;5076022;28;20177;-89
2023/06/17 12:30:10;;;;;;;8.88;6.50;;;25.80;93.80;;;;;;5076592;28;20246;-87
2023/06/17 12:32:37;;;;;;;8.95;6.10;;;25.70;94.50;;;;;;5077304;28;20239;-88
2023/06/17 12:35:04;;;;;;;7.55;6.18;;;25.80;95.20;;;;;;5076310;28;20583;-89